NCAR-RAP Real-Time Weather Data

Output produced by METARs form (23 April 2019  08:24 UTC)
found at http://weather.rap.ucar.edu/surface/
 
RJTT 230800Z 20013KT 9999 FEW030 BKN/// 21/09 Q1019 NOSIG RMK 1CU030 A3011